sensor_id;sensor_type;location;lat;lon;timestamp;P1;durP1;ratioP1;P2;durP2;ratioP2
69172;SDS011;56280;49.662;8.408;2023-06-01T00:02:20;7.53;;;2.80;;
69172;SDS011;56280;49.662;8.408;2023-06-01T00:04:46;7.47;;;2.83;;
69172;SDS011;56280;49.662;8.408;2023-06-01T00:07:13;5.90;;;2.70;;
69172;SDS011;56280;49.662;8.408;2023-06-01T00:09:38;8.82;;;2.92;;
69172;SDS011;56280;49.662;8.408;2023-06-01T00:12:04;7.00;;;3.10;;
69172;SDS011;56280;49.662;8.408;2023-06-01T00:14:30;7.50;;;2.83;;
69172;SDS011;56280;49.662;8.408;2023-06-01T00:16:55;6.07;;;3.00;;
69172;SDS011;56280;49.662;8.408;2023-06-01T00:19:21;7.80;;;2.83;;
69172;SDS011;56280;49.662;8.408;2023-06-01T00:21:47;6.72;;;2.90;;
69172;SDS011;56280;49.662;8.408;2023-06-01T00:24:12;7.00;;;3.10;;
69172;SDS011;56280;49.662;8.408;2023-06-01T00:26:38;6.80;;;3.03;;
69172;SDS011;56280;49.662;8.408;2023-06-01T00:29:03;6.50;;;3.00;;
69172;SDS011;56280;49.662;8.408;2023-06-01T00:31:28;7.90;;;2.88;;
69172;SDS011;56280;49.662;8.408;2023-06-01T00:33:53;7.20;;;2.95;;
69172;SDS011;56280;49.662;8.408;2023-06-01T00:36:19;6.82;;;2.80;;
69172;SDS011;56280;49.662;8.408;2023-06-01T00:38:45;6.53;;;3.10;;
69172;SDS011;56280;49.662;8.408;2023-06-01T00:41:10;7.10;;;3.10;;
69172;SDS011;56280;49.662;8.408;2023-06-01T00:43:36;5.80;;;2.80;;
69172;SDS011;56280;49.662;8.408;2023-06-01T00:46:01;6.97;;;2.93;;
69172;SDS011;56280;49.662;8.408;2023-06-01T00:48:26;6.40;;;3.00;;
69172;SDS011;56280;49.662;8.408;2023-06-01T00:50:52;9.05;;;3.00;;
69172;SDS011;56280;49.662;8.408;2023-06-01T00:53:18;6.53;;;2.90;;
69172;SDS011;56280;49.662;8.408;2023-06-01T00:55:45;7.13;;;2.90;;
69172;SDS011;56280;49.662;8.408;2023-06-01T00:58:12;6.70;;;2.92;;
69172;SDS011;56280;49.662;8.408;2023-06-01T01:00:37;7.63;;;3.17;;
69172;SDS011;56280;49.662;8.408;2023-06-01T01:03:04;6.63;;;2.73;;
69172;SDS011;56280;49.662;8.408;2023-06-01T01:05:32;7.72;;;3.08;;
69172;SDS011;56280;49.662;8.408;2023-06-01T01:11:07;7.35;;;3.30;;
69172;SDS011;56280;49.662;8.408;2023-06-01T01:13:54;7.28;;;2.80;;
69172;SDS011;56280;49.662;8.408;2023-06-01T01:16:27;7.60;;;3.10;;
69172;SDS011;56280;49.662;8.408;2023-06-01T01:19:00;6.93;;;3.03;;
69172;SDS011;56280;49.662;8.408;2023-06-01T01:21:38;5.97;;;2.90;;
69172;SDS011;56280;49.662;8.408;2023-06-01T01:24:21;8.60;;;2.90;;
69172;SDS011;56280;49.662;8.408;2023-06-01T01:29:31;5.70;;;2.95;;
69172;SDS011;56280;49.662;8.408;2023-06-01T01:31:58;7.63;;;3.08;;
69172;SDS011;56280;49.662;8.408;2023-06-01T01:34:25;7.35;;;3.40;;
69172;SDS011;56280;49.662;8.408;2023-06-01T01:36:53;6.35;;;3.10;;
69172;SDS011;56280;49.662;8.408;2023-06-01T01:39:19;6.93;;;2.90;;
69172;SDS011;56280;49.662;8.408;2023-06-01T01:41:44;6.40;;;2.90;;
69172;SDS011;56280;49.662;8.408;2023-06-01T01:44:10;5.90;;;2.87;;
69172;SDS011;56280;49.662;8.408;2023-06-01T01:46:36;6.93;;;2.90;;
69172;SDS011;56280;49.662;8.408;2023-06-01T01:49:30;6.40;;;3.15;;
69172;SDS011;56280;49.662;8.408;2023-06-01T01:54:29;7.75;;;3.10;;
69172;SDS011;56280;49.662;8.408;2023-06-01T01:56:57;8.27;;;3.10;;
69172;SDS011;56280;49.662;8.408;2023-06-01T01:59:24;5.93;;;3.00;;
69172;SDS011;56280;49.662;8.408;2023-06-01T02:01:51;6.95;;;3.20;;
69172;SDS011;56280;49.662;8.408;2023-06-01T02:04:17;6.75;;;2.75;;
69172;SDS011;56280;49.662;8.408;2023-06-01T02:06:42;6.10;;;3.17;;
69172;SDS011;56280;49.662;8.408;2023-06-01T02:09:07;7.55;;;3.10;;
69172;SDS011;56280;49.662;8.408;2023-06-01T02:11:33;6.80;;;2.95;;
69172;SDS011;56280;49.662;8.408;2023-06-01T02:13:59;6.75;;;3.10;;
69172;SDS011;56280;49.662;8.408;2023-06-01T02:16:25;6.93;;;2.70;;
69172;SDS011;56280;49.662;8.408;2023-06-01T02:18:50;6.07;;;3.10;;
69172;SDS011;56280;49.662;8.408;2023-06-01T02:21:16;5.82;;;3.13;;
69172;SDS011;56280;49.662;8.408;2023-06-01T02:23:41;6.33;;;2.80;;
69172;SDS011;56280;49.662;8.408;2023-06-01T02:26:07;6.40;;;3.10;;
69172;SDS011;56280;49.662;8.408;2023-06-01T02:28:36;6.97;;;3.20;;
69172;SDS011;56280;49.662;8.408;2023-06-01T02:31:03;7.60;;;3.33;;
69172;SDS011;56280;49.662;8.408;2023-06-01T02:33:29;8.85;;;3.10;;
69172;SDS011;56280;49.662;8.408;2023-06-01T02:35:54;9.57;;;3.27;;
69172;SDS011;56280;49.662;8.408;2023-06-01T02:38:20;7.20;;;3.23;;
69172;SDS011;56280;49.662;8.408;2023-06-01T02:40:45;6.57;;;3.33;;
69172;SDS011;56280;49.662;8.408;2023-06-01T02:43:10;7.07;;;3.17;;
69172;SDS011;56280;49.662;8.408;2023-06-01T02:45:35;8.03;;;3.33;;
69172;SDS011;56280;49.662;8.408;2023-06-01T02:48:01;7.97;;;3.23;;
69172;SDS011;56280;49.662;8.408;2023-06-01T02:50:26;8.17;;;3.20;;
69172;SDS011;56280;49.662;8.408;2023-06-01T02:52:51;6.22;;;3.17;;
69172;SDS011;56280;49.662;8.408;2023-06-01T02:55:16;8.73;;;3.20;;
69172;SDS011;56280;49.662;8.408;2023-06-01T02:57:42;6.17;;;3.20;;
69172;SDS011;56280;49.662;8.408;2023-06-01T03:00:07;7.23;;;3.37;;
69172;SDS011;56280;49.662;8.408;2023-06-01T03:02:41;7.95;;;3.53;;
69172;SDS011;56280;49.662;8.408;2023-06-01T03:05:07;6.10;;;3.13;;
69172;SDS011;56280;49.662;8.408;2023-06-01T03:07:32;8.10;;;3.37;;
69172;SDS011;56280;49.662;8.408;2023-06-01T03:09:58;9.20;;;3.20;;
69172;SDS011;56280;49.662;8.408;2023-06-01T03:12:23;9.03;;;3.23;;
69172;SDS011;56280;49.662;8.408;2023-06-01T03:14:48;7.25;;;3.33;;
69172;SDS011;56280;49.662;8.408;2023-06-01T03:17:13;5.87;;;3.20;;
69172;SDS011;56280;49.662;8.408;2023-06-01T03:19:39;6.73;;;3.60;;
69172;SDS011;56280;49.662;8.408;2023-06-01T03:22:04;7.57;;;3.23;;
69172;SDS011;56280;49.662;8.408;2023-06-01T03:24:30;7.45;;;3.55;;
69172;SDS011;56280;49.662;8.408;2023-06-01T03:26:55;7.77;;;3.50;;
69172;SDS011;56280;49.662;8.408;2023-06-01T03:29:20;6.60;;;3.30;;
69172;SDS011;56280;49.662;8.408;2023-06-01T03:31:46;7.43;;;3.57;;
69172;SDS011;56280;49.662;8.408;2023-06-01T03:34:11;7.10;;;3.30;;
69172;SDS011;56280;49.662;8.408;2023-06-01T03:36:36;7.27;;;3.40;;
69172;SDS011;56280;49.662;8.408;2023-06-01T03:39:02;7.65;;;3.72;;
69172;SDS011;56280;49.662;8.408;2023-06-01T03:41:33;6.43;;;3.30;;
69172;SDS011;56280;49.662;8.408;2023-06-01T03:43:59;7.80;;;3.40;;
69172;SDS011;56280;49.662;8.408;2023-06-01T03:46:25;7.97;;;3.50;;
69172;SDS011;56280;49.662;8.408;2023-06-01T03:48:50;10.07;;;3.50;;
69172;SDS011;56280;49.662;8.408;2023-06-01T03:51:16;8.50;;;3.55;;
69172;SDS011;56280;49.662;8.408;2023-06-01T03:53:42;9.33;;;3.67;;
69172;SDS011;56280;49.662;8.408;2023-06-01T03:56:07;7.70;;;3.43;;
69172;SDS011;56280;49.662;8.408;2023-06-01T03:58:32;6.93;;;3.23;;
69172;SDS011;56280;49.662;8.408;2023-06-01T04:00:57;8.03;;;3.30;;
69172;SDS011;56280;49.662;8.408;2023-06-01T04:03:23;8.87;;;3.50;;
69172;SDS011;56280;49.662;8.408;2023-06-01T04:05:51;8.02;;;3.40;;
69172;SDS011;56280;49.662;8.408;2023-06-01T04:08:16;8.53;;;3.60;;
69172;SDS011;56280;49.662;8.408;2023-06-01T04:10:44;9.23;;;3.58;;
69172;SDS011;56280;49.662;8.408;2023-06-01T04:13:10;7.23;;;3.50;;
69172;SDS011;56280;49.662;8.408;2023-06-01T04:15:35;7.33;;;3.27;;
69172;SDS011;56280;49.662;8.408;2023-06-01T04:18:00;6.87;;;3.30;;
69172;SDS011;56280;49.662;8.408;2023-06-01T04:20:25;8.40;;;3.47;;
69172;SDS011;56280;49.662;8.408;2023-06-01T04:22:51;7.47;;;3.57;;
69172;SDS011;56280;49.662;8.408;2023-06-01T04:25:16;5.63;;;3.03;;
69172;SDS011;56280;49.662;8.408;2023-06-01T04:27:46;7.43;;;3.38;;
69172;SDS011;56280;49.662;8.408;2023-06-01T04:30:13;6.93;;;3.28;;
69172;SDS011;56280;49.662;8.408;2023-06-01T04:32:40;8.60;;;3.40;;
69172;SDS011;56280;49.662;8.408;2023-06-01T04:35:09;7.65;;;3.40;;
69172;SDS011;56280;49.662;8.408;2023-06-01T04:37:36;7.45;;;3.33;;
69172;SDS011;56280;49.662;8.408;2023-06-01T04:45:20;7.85;;;3.30;;
69172;SDS011;56280;49.662;8.408;2023-06-01T04:48:03;7.03;;;3.17;;
69172;SDS011;56280;49.662;8.408;2023-06-01T04:50:36;7.80;;;3.20;;
69172;SDS011;56280;49.662;8.408;2023-06-01T04:53:02;6.72;;;3.15;;
69172;SDS011;56280;49.662;8.408;2023-06-01T04:55:28;7.60;;;3.20;;
69172;SDS011;56280;49.662;8.408;2023-06-01T04:57:53;8.50;;;3.10;;
69172;SDS011;56280;49.662;8.408;2023-06-01T05:00:19;8.77;;;3.20;;
69172;SDS011;56280;49.662;8.408;2023-06-01T05:02:45;6.40;;;3.00;;
69172;SDS011;56280;49.662;8.408;2023-06-01T05:05:12;8.68;;;3.10;;
69172;SDS011;56280;49.662;8.408;2023-06-01T05:07:38;7.32;;;3.17;;
69172;SDS011;56280;49.662;8.408;2023-06-01T05:10:05;6.40;;;3.20;;
69172;SDS011;56280;49.662;8.408;2023-06-01T05:12:32;8.13;;;3.47;;
69172;SDS011;56280;49.662;8.408;2023-06-01T05:14:58;7.68;;;3.17;;
69172;SDS011;56280;49.662;8.408;2023-06-01T05:17:24;8.10;;;3.33;;
69172;SDS011;56280;49.662;8.408;2023-06-01T05:19:49;7.80;;;3.37;;
69172;SDS011;56280;49.662;8.408;2023-06-01T05:22:15;7.83;;;3.20;;
69172;SDS011;56280;49.662;8.408;2023-06-01T05:24:40;6.37;;;3.20;;
69172;SDS011;56280;49.662;8.408;2023-06-01T05:27:05;7.07;;;3.20;;
69172;SDS011;56280;49.662;8.408;2023-06-01T05:29:31;8.33;;;3.40;;
69172;SDS011;56280;49.662;8.408;2023-06-01T05:31:56;9.00;;;3.50;;
69172;SDS011;56280;49.662;8.408;2023-06-01T05:34:22;9.13;;;3.03;;
69172;SDS011;56280;49.662;8.408;2023-06-01T05:36:47;7.30;;;2.97;;
69172;SDS011;56280;49.662;8.408;2023-06-01T05:39:14;7.43;;;2.90;;
69172;SDS011;56280;49.662;8.408;2023-06-01T05:41:39;7.90;;;3.00;;
69172;SDS011;56280;49.662;8.408;2023-06-01T05:44:05;6.50;;;2.97;;
69172;SDS011;56280;49.662;8.408;2023-06-01T05:46:31;7.43;;;3.20;;
69172;SDS011;56280;49.662;8.408;2023-06-01T05:48:56;6.70;;;3.00;;
69172;SDS011;56280;49.662;8.408;2023-06-01T05:51:21;7.23;;;3.37;;
69172;SDS011;56280;49.662;8.408;2023-06-01T05:53:46;7.17;;;3.10;;
69172;SDS011;56280;49.662;8.408;2023-06-01T05:56:12;7.67;;;3.47;;
69172;SDS011;56280;49.662;8.408;2023-06-01T05:58:37;8.07;;;2.90;;
69172;SDS011;56280;49.662;8.408;2023-06-01T06:01:03;7.07;;;3.00;;
69172;SDS011;56280;49.662;8.408;2023-06-01T06:03:28;7.93;;;3.10;;
69172;SDS011;56280;49.662;8.408;2023-06-01T06:05:54;7.97;;;3.10;;
69172;SDS011;56280;49.662;8.408;2023-06-01T06:08:19;8.40;;;3.23;;
69172;SDS011;56280;49.662;8.408;2023-06-01T06:10:45;9.15;;;3.20;;
69172;SDS011;56280;49.662;8.408;2023-06-01T06:13:11;8.43;;;3.17;;
69172;SDS011;56280;49.662;8.408;2023-06-01T06:15:36;7.30;;;3.00;;
69172;SDS011;56280;49.662;8.408;2023-06-01T06:18:02;6.97;;;3.10;;
69172;SDS011;56280;49.662;8.408;2023-06-01T06:20:27;7.30;;;3.17;;
69172;SDS011;56280;49.662;8.408;2023-06-01T06:22:53;9.07;;;2.97;;
69172;SDS011;56280;49.662;8.408;2023-06-01T06:25:18;7.73;;;3.20;;
69172;SDS011;56280;49.662;8.408;2023-06-01T06:27:44;7.47;;;3.10;;
69172;SDS011;56280;49.662;8.408;2023-06-01T06:30:10;7.90;;;3.15;;
69172;SDS011;56280;49.662;8.408;2023-06-01T06:32:36;6.78;;;3.10;;
69172;SDS011;56280;49.662;8.408;2023-06-01T06:35:01;7.15;;;3.20;;
69172;SDS011;56280;49.662;8.408;2023-06-01T06:37:27;6.50;;;2.80;;
69172;SDS011;56280;49.662;8.408;2023-06-01T06:39:53;7.38;;;3.20;;
69172;SDS011;56280;49.662;8.408;2023-06-01T06:42:18;8.80;;;3.03;;
69172;SDS011;56280;49.662;8.408;2023-06-01T06:44:44;8.40;;;2.90;;
69172;SDS011;56280;49.662;8.408;2023-06-01T06:47:09;7.03;;;3.10;;
69172;SDS011;56280;49.662;8.408;2023-06-01T06:49:35;9.68;;;3.00;;
69172;SDS011;56280;49.662;8.408;2023-06-01T06:52:01;7.30;;;3.30;;
69172;SDS011;56280;49.662;8.408;2023-06-01T06:54:26;7.37;;;3.00;;
69172;SDS011;56280;49.662;8.408;2023-06-01T06:56:51;9.17;;;3.00;;
69172;SDS011;56280;49.662;8.408;2023-06-01T06:59:17;9.33;;;3.20;;
69172;SDS011;56280;49.662;8.408;2023-06-01T07:01:42;6.37;;;3.30;;
69172;SDS011;56280;49.662;8.408;2023-06-01T07:04:08;9.50;;;3.10;;
69172;SDS011;56280;49.662;8.408;2023-06-01T07:06:33;7.15;;;2.95;;
69172;SDS011;56280;49.662;8.408;2023-06-01T07:08:59;6.70;;;3.03;;
69172;SDS011;56280;49.662;8.408;2023-06-01T07:11:24;6.90;;;3.00;;
69172;SDS011;56280;49.662;8.408;2023-06-01T07:13:51;8.98;;;3.42;;
69172;SDS011;56280;49.662;8.408;2023-06-01T07:16:17;8.17;;;3.37;;
69172;SDS011;56280;49.662;8.408;2023-06-01T07:18:43;9.90;;;3.00;;
69172;SDS011;56280;49.662;8.408;2023-06-01T07:21:08;9.10;;;3.20;;
69172;SDS011;56280;49.662;8.408;2023-06-01T07:23:33;8.37;;;3.40;;
69172;SDS011;56280;49.662;8.408;2023-06-01T07:25:58;8.53;;;3.30;;
69172;SDS011;56280;49.662;8.408;2023-06-01T07:28:24;8.20;;;2.93;;
69172;SDS011;56280;49.662;8.408;2023-06-01T07:30:52;8.40;;;2.95;;
69172;SDS011;56280;49.662;8.408;2023-06-01T07:33:19;7.30;;;3.10;;
69172;SDS011;56280;49.662;8.408;2023-06-01T07:35:46;7.10;;;2.72;;
69172;SDS011;56280;49.662;8.408;2023-06-01T07:38:11;6.68;;;2.90;;
69172;SDS011;56280;49.662;8.408;2023-06-01T07:40:37;8.53;;;2.87;;
69172;SDS011;56280;49.662;8.408;2023-06-01T07:43:02;8.47;;;3.00;;
69172;SDS011;56280;49.662;8.408;2023-06-01T07:45:28;8.00;;;3.20;;
69172;SDS011;56280;49.662;8.408;2023-06-01T07:47:53;8.10;;;3.27;;
69172;SDS011;56280;49.662;8.408;2023-06-01T07:50:18;7.93;;;3.07;;
69172;SDS011;56280;49.662;8.408;2023-06-01T07:52:44;6.87;;;3.03;;
69172;SDS011;56280;49.662;8.408;2023-06-01T07:55:10;6.88;;;2.85;;
69172;SDS011;56280;49.662;8.408;2023-06-01T07:57:35;8.33;;;3.13;;
69172;SDS011;56280;49.662;8.408;2023-06-01T08:00:01;6.57;;;2.60;;
69172;SDS011;56280;49.662;8.408;2023-06-01T08:02:28;6.28;;;2.83;;
69172;SDS011;56280;49.662;8.408;2023-06-01T08:04:53;7.10;;;2.60;;
69172;SDS011;56280;49.662;8.408;2023-06-01T08:07:21;7.65;;;2.90;;
69172;SDS011;56280;49.662;8.408;2023-06-01T08:09:47;7.65;;;3.00;;
69172;SDS011;56280;49.662;8.408;2023-06-01T08:12:13;7.80;;;2.85;;
69172;SDS011;56280;49.662;8.408;2023-06-01T08:14:39;7.30;;;2.78;;
69172;SDS011;56280;49.662;8.408;2023-06-01T08:17:06;6.25;;;2.83;;
69172;SDS011;56280;49.662;8.408;2023-06-01T08:19:32;9.98;;;2.65;;
69172;SDS011;56280;49.662;8.408;2023-06-01T08:21:58;7.68;;;2.50;;
69172;SDS011;56280;49.662;8.408;2023-06-01T08:24:23;8.07;;;2.70;;
69172;SDS011;56280;49.662;8.408;2023-06-01T08:26:50;8.52;;;2.97;;
69172;SDS011;56280;49.662;8.408;2023-06-01T08:29:19;8.32;;;2.67;;
69172;SDS011;56280;49.662;8.408;2023-06-01T08:31:45;5.73;;;2.60;;
69172;SDS011;56280;49.662;8.408;2023-06-01T08:34:10;6.97;;;2.47;;
69172;SDS011;56280;49.662;8.408;2023-06-01T08:36:36;6.77;;;2.80;;
69172;SDS011;56280;49.662;8.408;2023-06-01T08:39:06;8.17;;;2.90;;
69172;SDS011;56280;49.662;8.408;2023-06-01T08:41:49;7.65;;;2.70;;
69172;SDS011;56280;49.662;8.408;2023-06-01T08:44:26;6.93;;;2.47;;
69172;SDS011;56280;49.662;8.408;2023-06-01T08:46:53;6.40;;;2.70;;
69172;SDS011;56280;49.662;8.408;2023-06-01T08:49:19;7.33;;;2.40;;
69172;SDS011;56280;49.662;8.408;2023-06-01T08:51:46;7.70;;;2.53;;
69172;SDS011;56280;49.662;8.408;2023-06-01T08:54:15;7.72;;;2.53;;
69172;SDS011;56280;49.662;8.408;2023-06-01T08:56:41;7.53;;;2.70;;
69172;SDS011;56280;49.662;8.408;2023-06-01T08:59:07;7.50;;;2.42;;
69172;SDS011;56280;49.662;8.408;2023-06-01T09:01:35;7.10;;;2.50;;
69172;SDS011;56280;49.662;8.408;2023-06-01T09:04:02;5.78;;;2.67;;
69172;SDS011;56280;49.662;8.408;2023-06-01T09:06:27;6.43;;;2.60;;
69172;SDS011;56280;49.662;8.408;2023-06-01T09:08:53;6.93;;;2.40;;
69172;SDS011;56280;49.662;8.408;2023-06-01T09:11:19;6.40;;;2.70;;
69172;SDS011;56280;49.662;8.408;2023-06-01T09:13:44;11.02;;;2.60;;
69172;SDS011;56280;49.662;8.408;2023-06-01T09:16:09;10.00;;;2.63;;
69172;SDS011;56280;49.662;8.408;2023-06-01T09:18:35;7.73;;;2.67;;
69172;SDS011;56280;49.662;8.408;2023-06-01T09:23:40;6.95;;;2.40;;
69172;SDS011;56280;49.662;8.408;2023-06-01T09:26:07;6.22;;;2.63;;
69172;SDS011;56280;49.662;8.408;2023-06-01T09:31:34;6.85;;;2.67;;
69172;SDS011;56280;49.662;8.408;2023-06-01T09:34:06;5.18;;;2.53;;
69172;SDS011;56280;49.662;8.408;2023-06-01T09:36:36;7.70;;;2.65;;
69172;SDS011;56280;49.662;8.408;2023-06-01T09:39:05;7.10;;;2.42;;
69172;SDS011;56280;49.662;8.408;2023-06-01T09:44:10;6.28;;;2.45;;
69172;SDS011;56280;49.662;8.408;2023-06-01T09:46:45;6.77;;;2.40;;
69172;SDS011;56280;49.662;8.408;2023-06-01T09:49:17;5.65;;;2.45;;
69172;SDS011;56280;49.662;8.408;2023-06-01T09:51:49;8.90;;;2.70;;
69172;SDS011;56280;49.662;8.408;2023-06-01T09:54:25;6.77;;;2.70;;
69172;SDS011;56280;49.662;8.408;2023-06-01T09:56:52;8.20;;;2.38;;
69172;SDS011;56280;49.662;8.408;2023-06-01T09:59:19;5.65;;;2.40;;
69172;SDS011;56280;49.662;8.408;2023-06-01T10:01:48;6.40;;;2.50;;
69172;SDS011;56280;49.662;8.408;2023-06-01T10:04:17;6.55;;;2.47;;
69172;SDS011;56280;49.662;8.408;2023-06-01T10:06:46;7.32;;;2.40;;
69172;SDS011;56280;49.662;8.408;2023-06-01T10:09:12;5.65;;;2.72;;
69172;SDS011;56280;49.662;8.408;2023-06-01T10:11:40;5.93;;;2.35;;
69172;SDS011;56280;49.662;8.408;2023-06-01T10:14:06;5.83;;;2.60;;
69172;SDS011;56280;49.662;8.408;2023-06-01T10:16:32;5.88;;;2.30;;
69172;SDS011;56280;49.662;8.408;2023-06-01T10:18:59;6.03;;;2.40;;
69172;SDS011;56280;49.662;8.408;2023-06-01T10:21:25;6.25;;;2.25;;
69172;SDS011;56280;49.662;8.408;2023-06-01T10:23:52;5.72;;;2.30;;
69172;SDS011;56280;49.662;8.408;2023-06-01T10:26:17;7.30;;;2.50;;
69172;SDS011;56280;49.662;8.408;2023-06-01T10:28:45;5.82;;;2.20;;
69172;SDS011;56280;49.662;8.408;2023-06-01T10:34:01;6.18;;;2.33;;
69172;SDS011;56280;49.662;8.408;2023-06-01T10:41:52;5.97;;;2.38;;
69172;SDS011;56280;49.662;8.408;2023-06-01T10:47:06;5.63;;;2.27;;
69172;SDS011;56280;49.662;8.408;2023-06-01T10:52:35;6.40;;;2.30;;
69172;SDS011;56280;49.662;8.408;2023-06-01T10:57:34;5.90;;;2.10;;
69172;SDS011;56280;49.662;8.408;2023-06-01T11:00:20;6.22;;;2.35;;
69172;SDS011;56280;49.662;8.408;2023-06-01T11:02:47;7.57;;;2.67;;
69172;SDS011;56280;49.662;8.408;2023-06-01T11:13:15;6.25;;;2.28;;
69172;SDS011;56280;49.662;8.408;2023-06-01T11:18:43;7.53;;;2.30;;
69172;SDS011;56280;49.662;8.408;2023-06-01T11:21:15;6.22;;;2.22;;
69172;SDS011;56280;49.662;8.408;2023-06-01T11:23:46;6.40;;;2.35;;
69172;SDS011;56280;49.662;8.408;2023-06-01T11:26:15;6.37;;;2.20;;
69172;SDS011;56280;49.662;8.408;2023-06-01T11:28:42;6.97;;;2.23;;
69172;SDS011;56280;49.662;8.408;2023-06-01T11:31:09;8.02;;;2.30;;
69172;SDS011;56280;49.662;8.408;2023-06-01T11:33:37;7.53;;;2.33;;
69172;SDS011;56280;49.662;8.408;2023-06-01T11:36:05;6.17;;;2.30;;
69172;SDS011;56280;49.662;8.408;2023-06-01T11:38:32;4.97;;;2.20;;
69172;SDS011;56280;49.662;8.408;2023-06-01T11:41:01;6.57;;;2.60;;
69172;SDS011;56280;49.662;8.408;2023-06-01T11:43:28;7.50;;;2.40;;
69172;SDS011;56280;49.662;8.408;2023-06-01T11:48:27;5.43;;;2.30;;
69172;SDS011;56280;49.662;8.408;2023-06-01T11:50:52;6.57;;;2.10;;
69172;SDS011;56280;49.662;8.408;2023-06-01T11:53:19;5.93;;;2.10;;
69172;SDS011;56280;49.662;8.408;2023-06-01T11:55:52;5.80;;;2.10;;
69172;SDS011;56280;49.662;8.408;2023-06-01T11:58:28;6.68;;;2.50;;
69172;SDS011;56280;49.662;8.408;2023-06-01T12:00:55;5.80;;;2.22;;
69172;SDS011;56280;49.662;8.408;2023-06-01T12:03:22;4.78;;;2.10;;
69172;SDS011;56280;49.662;8.408;2023-06-01T12:05:51;6.07;;;2.30;;
69172;SDS011;56280;49.662;8.408;2023-06-01T12:08:21;6.70;;;2.43;;
69172;SDS011;56280;49.662;8.408;2023-06-01T12:10:48;6.60;;;2.38;;
69172;SDS011;56280;49.662;8.408;2023-06-01T12:13:18;6.55;;;2.10;;
69172;SDS011;56280;49.662;8.408;2023-06-01T12:15:45;5.20;;;2.30;;
69172;SDS011;56280;49.662;8.408;2023-06-01T12:18:11;6.80;;;2.28;;
69172;SDS011;56280;49.662;8.408;2023-06-01T12:20:40;5.05;;;2.40;;
69172;SDS011;56280;49.662;8.408;2023-06-01T12:25:38;6.50;;;2.42;;
69172;SDS011;56280;49.662;8.408;2023-06-01T12:28:14;8.75;;;2.40;;
69172;SDS011;56280;49.662;8.408;2023-06-01T12:30:40;7.80;;;2.63;;
69172;SDS011;56280;49.662;8.408;2023-06-01T12:33:05;7.23;;;2.30;;
69172;SDS011;56280;49.662;8.408;2023-06-01T12:35:31;6.73;;;2.30;;
69172;SDS011;56280;49.662;8.408;2023-06-01T12:38:03;5.07;;;2.27;;
69172;SDS011;56280;49.662;8.408;2023-06-01T12:40:29;4.83;;;2.10;;
69172;SDS011;56280;49.662;8.408;2023-06-01T12:42:54;6.50;;;2.20;;
69172;SDS011;56280;49.662;8.408;2023-06-01T12:45:19;6.37;;;2.50;;
69172;SDS011;56280;49.662;8.408;2023-06-01T12:47:45;7.20;;;2.20;;
69172;SDS011;56280;49.662;8.408;2023-06-01T12:50:11;7.67;;;2.60;;
69172;SDS011;56280;49.662;8.408;2023-06-01T12:52:37;6.40;;;2.20;;
69172;SDS011;56280;49.662;8.408;2023-06-01T12:55:03;5.03;;;2.40;;
69172;SDS011;56280;49.662;8.408;2023-06-01T12:57:30;7.30;;;2.50;;
69172;SDS011;56280;49.662;8.408;2023-06-01T12:59:56;4.65;;;2.17;;
69172;SDS011;56280;49.662;8.408;2023-06-01T13:02:21;7.90;;;2.33;;
69172;SDS011;56280;49.662;8.408;2023-06-01T13:04:46;7.90;;;2.40;;
69172;SDS011;56280;49.662;8.408;2023-06-01T13:07:12;6.60;;;2.40;;
69172;SDS011;56280;49.662;8.408;2023-06-01T13:09:37;9.93;;;2.20;;
69172;SDS011;56280;49.662;8.408;2023-06-01T13:12:02;6.97;;;2.10;;
69172;SDS011;56280;49.662;8.408;2023-06-01T13:14:28;6.18;;;2.30;;
69172;SDS011;56280;49.662;8.408;2023-06-01T13:16:55;6.00;;;2.20;;
69172;SDS011;56280;49.662;8.408;2023-06-01T13:19:20;5.70;;;2.22;;
69172;SDS011;56280;49.662;8.408;2023-06-01T13:21:46;6.63;;;2.38;;
69172;SDS011;56280;49.662;8.408;2023-06-01T13:24:12;6.47;;;2.17;;
69172;SDS011;56280;49.662;8.408;2023-06-01T13:26:38;6.00;;;2.20;;
69172;SDS011;56280;49.662;8.408;2023-06-01T13:29:03;6.00;;;2.10;;
69172;SDS011;56280;49.662;8.408;2023-06-01T13:31:31;7.43;;;2.30;;
69172;SDS011;56280;49.662;8.408;2023-06-01T13:33:57;5.73;;;2.10;;
69172;SDS011;56280;49.662;8.408;2023-06-01T13:36:23;5.88;;;2.20;;
69172;SDS011;56280;49.662;8.408;2023-06-01T13:38:48;5.50;;;2.20;;
69172;SDS011;56280;49.662;8.408;2023-06-01T13:41:14;4.83;;;2.10;;
69172;SDS011;56280;49.662;8.408;2023-06-01T13:43:39;7.03;;;2.10;;
69172;SDS011;56280;49.662;8.408;2023-06-01T13:46:05;5.63;;;2.50;;
69172;SDS011;56280;49.662;8.408;2023-06-01T13:48:32;4.33;;;2.00;;
69172;SDS011;56280;49.662;8.408;2023-06-01T13:50:58;6.03;;;2.20;;
69172;SDS011;56280;49.662;8.408;2023-06-01T13:53:24;5.10;;;2.00;;
69172;SDS011;56280;49.662;8.408;2023-06-01T13:55:49;6.90;;;2.23;;
69172;SDS011;56280;49.662;8.408;2023-06-01T13:58:14;7.73;;;2.10;;
69172;SDS011;56280;49.662;8.408;2023-06-01T14:00:40;5.80;;;2.10;;
69172;SDS011;56280;49.662;8.408;2023-06-01T14:03:06;5.37;;;2.00;;
69172;SDS011;56280;49.662;8.408;2023-06-01T14:05:31;5.38;;;2.13;;
69172;SDS011;56280;49.662;8.408;2023-06-01T14:07:57;7.22;;;2.17;;
69172;SDS011;56280;49.662;8.408;2023-06-01T14:10:22;5.60;;;2.13;;
69172;SDS011;56280;49.662;8.408;2023-06-01T14:12:48;4.97;;;2.07;;
69172;SDS011;56280;49.662;8.408;2023-06-01T14:15:13;8.07;;;2.30;;
69172;SDS011;56280;49.662;8.408;2023-06-01T14:17:38;6.43;;;2.00;;
69172;SDS011;56280;49.662;8.408;2023-06-01T14:20:04;4.70;;;2.10;;
69172;SDS011;56280;49.662;8.408;2023-06-01T14:22:29;5.90;;;2.37;;
69172;SDS011;56280;49.662;8.408;2023-06-01T14:24:55;5.47;;;2.07;;
69172;SDS011;56280;49.662;8.408;2023-06-01T14:27:20;5.77;;;2.03;;
69172;SDS011;56280;49.662;8.408;2023-06-01T14:29:45;5.43;;;2.10;;
69172;SDS011;56280;49.662;8.408;2023-06-01T14:32:11;4.77;;;2.10;;
69172;SDS011;56280;49.662;8.408;2023-06-01T14:34:36;6.07;;;2.50;;
69172;SDS011;56280;49.662;8.408;2023-06-01T14:37:01;4.60;;;2.10;;
69172;SDS011;56280;49.662;8.408;2023-06-01T14:39:29;5.90;;;2.00;;
69172;SDS011;56280;49.662;8.408;2023-06-01T14:41:54;6.23;;;2.20;;
69172;SDS011;56280;49.662;8.408;2023-06-01T14:44:20;6.93;;;2.20;;
69172;SDS011;56280;49.662;8.408;2023-06-01T14:46:45;5.83;;;2.03;;
69172;SDS011;56280;49.662;8.408;2023-06-01T14:49:10;6.50;;;2.17;;
69172;SDS011;56280;49.662;8.408;2023-06-01T14:51:36;4.57;;;1.97;;
69172;SDS011;56280;49.662;8.408;2023-06-01T14:54:01;4.07;;;2.00;;
69172;SDS011;56280;49.662;8.408;2023-06-01T14:56:27;5.03;;;2.20;;
69172;SDS011;56280;49.662;8.408;2023-06-01T14:58:53;9.50;;;2.15;;
69172;SDS011;56280;49.662;8.408;2023-06-01T15:01:18;4.80;;;2.20;;
69172;SDS011;56280;49.662;8.408;2023-06-01T15:03:43;5.13;;;2.10;;
69172;SDS011;56280;49.662;8.408;2023-06-01T15:06:09;5.80;;;2.00;;
69172;SDS011;56280;49.662;8.408;2023-06-01T15:08:34;5.57;;;2.30;;
69172;SDS011;56280;49.662;8.408;2023-06-01T15:10:59;7.03;;;2.13;;
69172;SDS011;56280;49.662;8.408;2023-06-01T15:13:25;5.77;;;2.20;;
69172;SDS011;56280;49.662;8.408;2023-06-01T15:15:50;5.33;;;2.10;;
69172;SDS011;56280;49.662;8.408;2023-06-01T15:18:15;5.23;;;2.10;;
69172;SDS011;56280;49.662;8.408;2023-06-01T15:20:40;5.47;;;2.10;;
69172;SDS011;56280;49.662;8.408;2023-06-01T15:23:06;6.77;;;2.40;;
69172;SDS011;56280;49.662;8.408;2023-06-01T15:25:31;4.70;;;2.00;;
69172;SDS011;56280;49.662;8.408;2023-06-01T15:27:57;4.85;;;2.13;;
69172;SDS011;56280;49.662;8.408;2023-06-01T15:30:22;5.40;;;2.10;;
69172;SDS011;56280;49.662;8.408;2023-06-01T15:32:47;6.23;;;2.33;;
69172;SDS011;56280;49.662;8.408;2023-06-01T15:35:13;4.27;;;2.00;;
69172;SDS011;56280;49.662;8.408;2023-06-01T15:37:38;5.77;;;2.20;;
69172;SDS011;56280;49.662;8.408;2023-06-01T15:40:10;5.90;;;2.20;;